sensor_id;sensor_type;location;lat;lon;timestamp;P1;durP1;ratioP1;P2;durP2;ratioP2
58366;SDS011;57745;42.524;12.052;2023-10-13T00:01:24;10.10;;;3.60;;
58366;SDS011;57745;42.524;12.052;2023-10-13T00:03:50;10.10;;;3.33;;
58366;SDS011;57745;42.524;12.052;2023-10-13T00:06:19;7.93;;;3.20;;
58366;SDS011;57745;42.524;12.052;2023-10-13T00:08:45;7.07;;;3.83;;
58366;SDS011;57745;42.524;12.052;2023-10-13T00:11:14;9.45;;;4.70;;
58366;SDS011;57745;42.524;12.052;2023-10-13T00:13:40;7.88;;;3.90;;
58366;SDS011;57745;42.524;12.052;2023-10-13T00:16:08;5.53;;;3.25;;
58366;SDS011;57745;42.524;12.052;2023-10-13T00:18:46;11.50;;;4.18;;
58366;SDS011;57745;42.524;12.052;2023-10-13T00:21:13;7.55;;;4.03;;
58366;SDS011;57745;42.524;12.052;2023-10-13T00:24:00;9.15;;;4.38;;
58366;SDS011;57745;42.524;12.052;2023-10-13T00:26:37;8.90;;;3.70;;
58366;SDS011;57745;42.524;12.052;2023-10-13T00:29:03;10.43;;;3.90;;
58366;SDS011;57745;42.524;12.052;2023-10-13T00:31:32;7.20;;;3.58;;
58366;SDS011;57745;42.524;12.052;2023-10-13T00:34:01;7.05;;;3.72;;
58366;SDS011;57745;42.524;12.052;2023-10-13T00:36:41;10.70;;;3.83;;
58366;SDS011;57745;42.524;12.052;2023-10-13T00:39:33;8.02;;;3.72;;
58366;SDS011;57745;42.524;12.052;2023-10-13T00:42:01;10.18;;;3.50;;
58366;SDS011;57745;42.524;12.052;2023-10-13T00:44:32;9.55;;;3.78;;
58366;SDS011;57745;42.524;12.052;2023-10-13T00:47:03;8.68;;;3.33;;
58366;SDS011;57745;42.524;12.052;2023-10-13T00:49:33;8.00;;;3.17;;
58366;SDS011;57745;42.524;12.052;2023-10-13T00:52:04;10.68;;;3.80;;
58366;SDS011;57745;42.524;12.052;2023-10-13T00:54:31;6.90;;;3.50;;
58366;SDS011;57745;42.524;12.052;2023-10-13T00:57:00;9.73;;;3.63;;
58366;SDS011;57745;42.524;12.052;2023-10-13T00:59:32;7.97;;;3.70;;
58366;SDS011;57745;42.524;12.052;2023-10-13T01:02:01;10.10;;;3.60;;
58366;SDS011;57745;42.524;12.052;2023-10-13T01:04:47;7.20;;;4.03;;
58366;SDS011;57745;42.524;12.052;2023-10-13T01:07:13;5.43;;;3.28;;
58366;SDS011;57745;42.524;12.052;2023-10-13T01:09:41;9.77;;;3.90;;
58366;SDS011;57745;42.524;12.052;2023-10-13T01:12:16;8.93;;;3.67;;
58366;SDS011;57745;42.524;12.052;2023-10-13T01:14:41;7.10;;;3.15;;
58366;SDS011;57745;42.524;12.052;2023-10-13T01:17:07;5.82;;;3.35;;
58366;SDS011;57745;42.524;12.052;2023-10-13T01:19:35;8.90;;;3.67;;
58366;SDS011;57745;42.524;12.052;2023-10-13T01:22:07;8.27;;;3.50;;
58366;SDS011;57745;42.524;12.052;2023-10-13T01:24:33;9.90;;;3.63;;
58366;SDS011;57745;42.524;12.052;2023-10-13T01:27:01;12.10;;;3.58;;
58366;SDS011;57745;42.524;12.052;2023-10-13T01:29:51;9.27;;;4.05;;
58366;SDS011;57745;42.524;12.052;2023-10-13T01:32:23;7.10;;;3.95;;
58366;SDS011;57745;42.524;12.052;2023-10-13T01:34:49;7.72;;;3.40;;
58366;SDS011;57745;42.524;12.052;2023-10-13T01:37:18;6.15;;;3.47;;
58366;SDS011;57745;42.524;12.052;2023-10-13T01:39:44;7.10;;;3.60;;
58366;SDS011;57745;42.524;12.052;2023-10-13T01:42:14;8.93;;;3.83;;
58366;SDS011;57745;42.524;12.052;2023-10-13T01:44:44;6.22;;;3.55;;
58366;SDS011;57745;42.524;12.052;2023-10-13T01:47:10;9.15;;;3.90;;
58366;SDS011;57745;42.524;12.052;2023-10-13T01:49:37;7.95;;;3.60;;
58366;SDS011;57745;42.524;12.052;2023-10-13T01:52:13;8.18;;;3.40;;
58366;SDS011;57745;42.524;12.052;2023-10-13T01:54:45;11.40;;;4.20;;
58366;SDS011;57745;42.524;12.052;2023-10-13T01:57:12;10.70;;;3.65;;
58366;SDS011;57745;42.524;12.052;2023-10-13T01:59:48;7.70;;;3.70;;
58366;SDS011;57745;42.524;12.052;2023-10-13T02:02:15;5.57;;;3.42;;
58366;SDS011;57745;42.524;12.052;2023-10-13T02:04:51;7.18;;;3.88;;
58366;SDS011;57745;42.524;12.052;2023-10-13T02:07:25;7.80;;;4.07;;
58366;SDS011;57745;42.524;12.052;2023-10-13T02:09:59;7.95;;;3.67;;
58366;SDS011;57745;42.524;12.052;2023-10-13T02:12:28;6.72;;;3.50;;
58366;SDS011;57745;42.524;12.052;2023-10-13T02:17:29;6.72;;;3.33;;
58366;SDS011;57745;42.524;12.052;2023-10-13T02:20:05;10.07;;;3.55;;
58366;SDS011;57745;42.524;12.052;2023-10-13T02:22:39;7.97;;;3.17;;
58366;SDS011;57745;42.524;12.052;2023-10-13T02:25:14;8.18;;;3.45;;
58366;SDS011;57745;42.524;12.052;2023-10-13T02:28:03;5.30;;;3.40;;
58366;SDS011;57745;42.524;12.052;2023-10-13T02:30:42;7.07;;;3.20;;
58366;SDS011;57745;42.524;12.052;2023-10-13T02:33:15;9.52;;;3.05;;
58366;SDS011;57745;42.524;12.052;2023-10-13T02:35:46;8.60;;;3.85;;
58366;SDS011;57745;42.524;12.052;2023-10-13T02:38:18;11.10;;;3.58;;
58366;SDS011;57745;42.524;12.052;2023-10-13T02:40:53;7.18;;;2.70;;
58366;SDS011;57745;42.524;12.052;2023-10-13T02:43:20;7.07;;;3.42;;
58366;SDS011;57745;42.524;12.052;2023-10-13T02:45:54;7.07;;;2.92;;
58366;SDS011;57745;42.524;12.052;2023-10-13T02:48:24;7.05;;;3.47;;
58366;SDS011;57745;42.524;12.052;2023-10-13T02:50:55;8.68;;;3.42;;
58366;SDS011;57745;42.524;12.052;2023-10-13T02:53:22;5.82;;;3.03;;
58366;SDS011;57745;42.524;12.052;2023-10-13T02:55:51;10.68;;;3.88;;
58366;SDS011;57745;42.524;12.052;2023-10-13T02:58:17;12.15;;;3.55;;
58366;SDS011;57745;42.524;12.052;2023-10-13T03:00:44;8.30;;;3.10;;
58366;SDS011;57745;42.524;12.052;2023-10-13T03:03:10;10.10;;;3.42;;
58366;SDS011;57745;42.524;12.052;2023-10-13T03:05:39;8.18;;;3.38;;
58366;SDS011;57745;42.524;12.052;2023-10-13T03:08:05;6.80;;;3.03;;
58366;SDS011;57745;42.524;12.052;2023-10-13T03:10:31;8.13;;;3.30;;
58366;SDS011;57745;42.524;12.052;2023-10-13T03:13:05;10.48;;;3.30;;
58366;SDS011;57745;42.524;12.052;2023-10-13T03:15:33;10.15;;;3.30;;
58366;SDS011;57745;42.524;12.052;2023-10-13T03:18:00;10.27;;;3.53;;
58366;SDS011;57745;42.524;12.052;2023-10-13T03:20:27;8.10;;;3.05;;
58366;SDS011;57745;42.524;12.052;2023-10-13T03:22:57;8.90;;;3.08;;
58366;SDS011;57745;42.524;12.052;2023-10-13T03:25:23;8.40;;;3.15;;
58366;SDS011;57745;42.524;12.052;2023-10-13T03:27:54;6.40;;;3.03;;
58366;SDS011;57745;42.524;12.052;2023-10-13T03:30:23;8.23;;;3.20;;
58366;SDS011;57745;42.524;12.052;2023-10-13T03:32:55;5.77;;;3.10;;
58366;SDS011;57745;42.524;12.052;2023-10-13T03:35:21;13.50;;;3.40;;
58366;SDS011;57745;42.524;12.052;2023-10-13T03:37:50;9.88;;;3.40;;
58366;SDS011;57745;42.524;12.052;2023-10-13T03:40:19;6.60;;;3.30;;
58366;SDS011;57745;42.524;12.052;2023-10-13T03:42:46;9.02;;;3.35;;
58366;SDS011;57745;42.524;12.052;2023-10-13T03:45:25;6.93;;;4.05;;
58366;SDS011;57745;42.524;12.052;2023-10-13T03:47:52;7.88;;;4.07;;
58366;SDS011;57745;42.524;12.052;2023-10-13T03:50:18;8.48;;;3.50;;
58366;SDS011;57745;42.524;12.052;2023-10-13T03:52:57;8.48;;;4.15;;
58366;SDS011;57745;42.524;12.052;2023-10-13T03:55:26;11.65;;;4.25;;
58366;SDS011;57745;42.524;12.052;2023-10-13T03:57:55;6.03;;;3.42;;
58366;SDS011;57745;42.524;12.052;2023-10-13T04:00:24;7.22;;;3.30;;
58366;SDS011;57745;42.524;12.052;2023-10-13T04:02:51;8.93;;;3.97;;
58366;SDS011;57745;42.524;12.052;2023-10-13T04:05:33;7.28;;;3.42;;
58366;SDS011;57745;42.524;12.052;2023-10-13T04:08:04;7.35;;;3.63;;
58366;SDS011;57745;42.524;12.052;2023-10-13T04:10:42;6.63;;;3.47;;
58366;SDS011;57745;42.524;12.052;2023-10-13T04:13:17;8.82;;;3.47;;
58366;SDS011;57745;42.524;12.052;2023-10-13T04:16:01;7.50;;;3.38;;
58366;SDS011;57745;42.524;12.052;2023-10-13T04:18:47;9.00;;;3.60;;
58366;SDS011;57745;42.524;12.052;2023-10-13T04:21:25;6.03;;;2.90;;
58366;SDS011;57745;42.524;12.052;2023-10-13T04:24:10;8.13;;;3.25;;
58366;SDS011;57745;42.524;12.052;2023-10-13T04:26:43;6.13;;;3.33;;
58366;SDS011;57745;42.524;12.052;2023-10-13T04:29:27;12.98;;;3.50;;
58366;SDS011;57745;42.524;12.052;2023-10-13T04:32:10;7.85;;;3.35;;
58366;SDS011;57745;42.524;12.052;2023-10-13T04:34:39;7.35;;;3.70;;
58366;SDS011;57745;42.524;12.052;2023-10-13T04:37:10;13.57;;;3.97;;
58366;SDS011;57745;42.524;12.052;2023-10-13T04:39:54;5.97;;;3.17;;
58366;SDS011;57745;42.524;12.052;2023-10-13T04:42:22;7.93;;;3.72;;
58366;SDS011;57745;42.524;12.052;2023-10-13T04:45:11;8.27;;;3.78;;
58366;SDS011;57745;42.524;12.052;2023-10-13T04:47:55;12.70;;;3.88;;
58366;SDS011;57745;42.524;12.052;2023-10-13T04:50:43;6.10;;;3.25;;
58366;SDS011;57745;42.524;12.052;2023-10-13T04:53:14;7.22;;;3.50;;
58366;SDS011;57745;42.524;12.052;2023-10-13T04:55:55;6.47;;;3.50;;
58366;SDS011;57745;42.524;12.052;2023-10-13T04:58:33;6.15;;;3.03;;
58366;SDS011;57745;42.524;12.052;2023-10-13T05:00:59;10.10;;;4.57;;
58366;SDS011;57745;42.524;12.052;2023-10-13T05:03:43;7.32;;;3.42;;
58366;SDS011;57745;42.524;12.052;2023-10-13T05:06:19;4.78;;;3.45;;
58366;SDS011;57745;42.524;12.052;2023-10-13T05:09:03;6.43;;;3.50;;
58366;SDS011;57745;42.524;12.052;2023-10-13T05:11:47;15.18;;;3.85;;
58366;SDS011;57745;42.524;12.052;2023-10-13T05:14:31;9.98;;;3.42;;
58366;SDS011;57745;42.524;12.052;2023-10-13T05:17:15;6.15;;;3.50;;
58366;SDS011;57745;42.524;12.052;2023-10-13T05:19:59;6.72;;;4.13;;
58366;SDS011;57745;42.524;12.052;2023-10-13T05:22:43;8.40;;;3.42;;
58366;SDS011;57745;42.524;12.052;2023-10-13T05:25:26;9.63;;;3.92;;
58366;SDS011;57745;42.524;12.052;2023-10-13T05:28:10;6.03;;;3.58;;
58366;SDS011;57745;42.524;12.052;2023-10-13T05:30:54;6.93;;;3.85;;
58366;SDS011;57745;42.524;12.052;2023-10-13T05:33:42;10.13;;;3.60;;
58366;SDS011;57745;42.524;12.052;2023-10-13T05:36:26;9.32;;;3.80;;
58366;SDS011;57745;42.524;12.052;2023-10-13T05:39:10;5.75;;;3.40;;
58366;SDS011;57745;42.524;12.052;2023-10-13T05:41:54;9.73;;;3.35;;
58366;SDS011;57745;42.524;12.052;2023-10-13T05:44:38;7.00;;;3.83;;
58366;SDS011;57745;42.524;12.052;2023-10-13T05:47:18;7.78;;;3.33;;
58366;SDS011;57745;42.524;12.052;2023-10-13T05:50:02;6.35;;;3.45;;
58366;SDS011;57745;42.524;12.052;2023-10-13T05:52:50;7.40;;;3.60;;
58366;SDS011;57745;42.524;12.052;2023-10-13T05:55:22;6.70;;;3.45;;
58366;SDS011;57745;42.524;12.052;2023-10-13T05:58:08;7.60;;;3.33;;
58366;SDS011;57745;42.524;12.052;2023-10-13T06:00:53;6.88;;;3.85;;
58366;SDS011;57745;42.524;12.052;2023-10-13T06:03:37;7.00;;;3.70;;
58366;SDS011;57745;42.524;12.052;2023-10-13T06:06:21;8.07;;;3.15;;
58366;SDS011;57745;42.524;12.052;2023-10-13T06:09:05;5.25;;;3.25;;
58366;SDS011;57745;42.524;12.052;2023-10-13T06:11:49;6.28;;;3.67;;
58366;SDS011;57745;42.524;12.052;2023-10-13T06:14:33;5.85;;;3.35;;
58366;SDS011;57745;42.524;12.052;2023-10-13T06:17:31;9.70;;;3.40;;
58366;SDS011;57745;42.524;12.052;2023-10-13T06:20:15;7.10;;;3.22;;
58366;SDS011;57745;42.524;12.052;2023-10-13T06:22:59;8.75;;;3.50;;
58366;SDS011;57745;42.524;12.052;2023-10-13T06:25:49;7.22;;;3.80;;
58366;SDS011;57745;42.524;12.052;2023-10-13T06:28:34;7.50;;;3.40;;
58366;SDS011;57745;42.524;12.052;2023-10-13T06:31:06;11.93;;;3.45;;
58366;SDS011;57745;42.524;12.052;2023-10-13T06:33:32;6.00;;;3.65;;
58366;SDS011;57745;42.524;12.052;2023-10-13T06:36:01;7.85;;;3.50;;
58366;SDS011;57745;42.524;12.052;2023-10-13T06:38:28;6.30;;;3.97;;
58366;SDS011;57745;42.524;12.052;2023-10-13T06:43:36;8.23;;;4.18;;
58366;SDS011;57745;42.524;12.052;2023-10-13T06:46:08;6.03;;;3.28;;
58366;SDS011;57745;42.524;12.052;2023-10-13T06:48:39;6.65;;;4.10;;
58366;SDS011;57745;42.524;12.052;2023-10-13T06:51:06;8.15;;;3.92;;
58366;SDS011;57745;42.524;12.052;2023-10-13T06:53:46;8.38;;;3.97;;
58366;SDS011;57745;42.524;12.052;2023-10-13T06:56:16;6.97;;;3.55;;
58366;SDS011;57745;42.524;12.052;2023-10-13T06:58:52;7.97;;;3.20;;
58366;SDS011;57745;42.524;12.052;2023-10-13T07:01:27;7.57;;;3.60;;
58366;SDS011;57745;42.524;12.052;2023-10-13T07:03:52;6.90;;;3.75;;
58366;SDS011;57745;42.524;12.052;2023-10-13T07:06:19;10.45;;;3.95;;
58366;SDS011;57745;42.524;12.052;2023-10-13T07:08:48;9.32;;;4.13;;
58366;SDS011;57745;42.524;12.052;2023-10-13T07:11:25;7.50;;;3.85;;
58366;SDS011;57745;42.524;12.052;2023-10-13T07:13:59;10.77;;;4.30;;
58366;SDS011;57745;42.524;12.052;2023-10-13T07:16:25;8.35;;;4.60;;
58366;SDS011;57745;42.524;12.052;2023-10-13T07:19:00;8.40;;;4.57;;
58366;SDS011;57745;42.524;12.052;2023-10-13T07:21:31;10.30;;;4.68;;
58366;SDS011;57745;42.524;12.052;2023-10-13T07:23:58;13.30;;;5.72;;
58366;SDS011;57745;42.524;12.052;2023-10-13T07:26:33;9.93;;;5.53;;
58366;SDS011;57745;42.524;12.052;2023-10-13T07:28:59;10.65;;;4.78;;
58366;SDS011;57745;42.524;12.052;2023-10-13T07:31:25;10.07;;;4.75;;
58366;SDS011;57745;42.524;12.052;2023-10-13T07:33:52;9.32;;;4.72;;
58366;SDS011;57745;42.524;12.052;2023-10-13T07:36:19;11.43;;;4.70;;
58366;SDS011;57745;42.524;12.052;2023-10-13T07:38:58;8.27;;;5.00;;
58366;SDS011;57745;42.524;12.052;2023-10-13T07:41:42;10.43;;;4.60;;
58366;SDS011;57745;42.524;12.052;2023-10-13T07:44:07;8.90;;;5.18;;
58366;SDS011;57745;42.524;12.052;2023-10-13T07:46:33;9.43;;;5.07;;
58366;SDS011;57745;42.524;12.052;2023-10-13T07:49:00;12.13;;;5.53;;
58366;SDS011;57745;42.524;12.052;2023-10-13T07:51:35;11.18;;;5.32;;
58366;SDS011;57745;42.524;12.052;2023-10-13T07:54:10;13.00;;;6.35;;
58366;SDS011;57745;42.524;12.052;2023-10-13T07:56:38;13.68;;;5.93;;
58366;SDS011;57745;42.524;12.052;2023-10-13T07:59:04;9.63;;;5.30;;
58366;SDS011;57745;42.524;12.052;2023-10-13T08:01:35;9.27;;;4.97;;
58366;SDS011;57745;42.524;12.052;2023-10-13T08:04:00;9.63;;;5.18;;
58366;SDS011;57745;42.524;12.052;2023-10-13T08:06:31;11.07;;;5.75;;
58366;SDS011;57745;42.524;12.052;2023-10-13T08:08:59;9.00;;;5.60;;
58366;SDS011;57745;42.524;12.052;2023-10-13T08:11:37;11.52;;;5.95;;
58366;SDS011;57745;42.524;12.052;2023-10-13T08:14:04;9.38;;;4.47;;
58366;SDS011;57745;42.524;12.052;2023-10-13T08:16:47;9.60;;;5.15;;
58366;SDS011;57745;42.524;12.052;2023-10-13T08:21:43;7.88;;;3.95;;
58366;SDS011;57745;42.524;12.052;2023-10-13T08:24:24;9.90;;;4.07;;
58366;SDS011;57745;42.524;12.052;2023-10-13T08:26:53;13.70;;;4.32;;
58366;SDS011;57745;42.524;12.052;2023-10-13T08:29:37;8.60;;;4.22;;
58366;SDS011;57745;42.524;12.052;2023-10-13T08:32:34;9.35;;;4.38;;
58366;SDS011;57745;42.524;12.052;2023-10-13T08:35:02;6.82;;;4.22;;
58366;SDS011;57745;42.524;12.052;2023-10-13T08:37:29;11.32;;;4.95;;
58366;SDS011;57745;42.524;12.052;2023-10-13T08:39:58;9.70;;;4.53;;
58366;SDS011;57745;42.524;12.052;2023-10-13T08:42:37;10.80;;;4.97;;
58366;SDS011;57745;42.524;12.052;2023-10-13T08:45:14;6.63;;;4.30;;
58366;SDS011;57745;42.524;12.052;2023-10-13T08:47:49;9.23;;;4.22;;
58366;SDS011;57745;42.524;12.052;2023-10-13T08:50:45;7.57;;;3.90;;
58366;SDS011;57745;42.524;12.052;2023-10-13T08:56:05;10.15;;;4.43;;
58366;SDS011;57745;42.524;12.052;2023-10-13T08:58:31;9.18;;;4.22;;
58366;SDS011;57745;42.524;12.052;2023-10-13T09:04:08;9.05;;;3.85;;
58366;SDS011;57745;42.524;12.052;2023-10-13T09:06:47;6.22;;;4.22;;
58366;SDS011;57745;42.524;12.052;2023-10-13T09:12:14;9.30;;;4.85;;
58366;SDS011;57745;42.524;12.052;2023-10-13T09:15:00;9.27;;;4.13;;
58366;SDS011;57745;42.524;12.052;2023-10-13T09:17:30;7.60;;;4.60;;
58366;SDS011;57745;42.524;12.052;2023-10-13T09:20:05;7.93;;;4.30;;
58366;SDS011;57745;42.524;12.052;2023-10-13T09:22:54;8.00;;;4.90;;
58366;SDS011;57745;42.524;12.052;2023-10-13T09:25:36;10.05;;;4.22;;
58366;SDS011;57745;42.524;12.052;2023-10-13T09:28:09;10.93;;;4.90;;
58366;SDS011;57745;42.524;12.052;2023-10-13T09:30:46;11.60;;;4.78;;
58366;SDS011;57745;42.524;12.052;2023-10-13T09:33:12;16.63;;;5.15;;
58366;SDS011;57745;42.524;12.052;2023-10-13T09:35:43;8.40;;;4.60;;
58366;SDS011;57745;42.524;12.052;2023-10-13T09:38:16;6.95;;;4.57;;
58366;SDS011;57745;42.524;12.052;2023-10-13T09:40:42;11.05;;;4.55;;
58366;SDS011;57745;42.524;12.052;2023-10-13T09:43:15;17.08;;;5.45;;
58366;SDS011;57745;42.524;12.052;2023-10-13T09:45:43;6.50;;;4.10;;
58366;SDS011;57745;42.524;12.052;2023-10-13T09:48:32;7.53;;;4.30;;
58366;SDS011;57745;42.524;12.052;2023-10-13T09:51:05;7.88;;;4.65;;
58366;SDS011;57745;42.524;12.052;2023-10-13T09:54:30;8.63;;;4.72;;
58366;SDS011;57745;42.524;12.052;2023-10-13T09:56:53;10.30;;;4.93;;
58366;SDS011;57745;42.524;12.052;2023-10-13T09:59:36;14.95;;;4.43;;
58366;SDS011;57745;42.524;12.052;2023-10-13T10:02:17;9.80;;;4.97;;
58366;SDS011;57745;42.524;12.052;2023-10-13T10:04:51;11.85;;;4.80;;
58366;SDS011;57745;42.524;12.052;2023-10-13T10:07:26;10.25;;;4.47;;
58366;SDS011;57745;42.524;12.052;2023-10-13T10:09:57;10.75;;;4.40;;
58366;SDS011;57745;42.524;12.052;2023-10-13T10:18:00;9.38;;;4.32;;
58366;SDS011;57745;42.524;12.052;2023-10-13T10:20:29;8.32;;;3.78;;
58366;SDS011;57745;42.524;12.052;2023-10-13T10:23:05;10.65;;;4.68;;
58366;SDS011;57745;42.524;12.052;2023-10-13T10:25:35;7.88;;;4.07;;
58366;SDS011;57745;42.524;12.052;2023-10-13T10:28:04;10.18;;;4.28;;
58366;SDS011;57745;42.524;12.052;2023-10-13T10:30:31;11.80;;;4.13;;
58366;SDS011;57745;42.524;12.052;2023-10-13T10:33:03;8.73;;;5.07;;
58366;SDS011;57745;42.524;12.052;2023-10-13T10:35:33;9.20;;;4.15;;
58366;SDS011;57745;42.524;12.052;2023-10-13T10:38:08;9.70;;;3.90;;
58366;SDS011;57745;42.524;12.052;2023-10-13T10:41:05;8.68;;;3.80;;
58366;SDS011;57745;42.524;12.052;2023-10-13T10:46:12;10.25;;;4.30;;
58366;SDS011;57745;42.524;12.052;2023-10-13T10:48:43;8.00;;;3.47;;
58366;SDS011;57745;42.524;12.052;2023-10-13T10:51:09;9.00;;;4.30;;
58366;SDS011;57745;42.524;12.052;2023-10-13T10:53:40;9.95;;;3.45;;
58366;SDS011;57745;42.524;12.052;2023-10-13T10:56:12;8.45;;;3.67;;
58366;SDS011;57745;42.524;12.052;2023-10-13T10:58:48;8.80;;;3.50;;
58366;SDS011;57745;42.524;12.052;2023-10-13T11:01:20;12.27;;;4.18;;
58366;SDS011;57745;42.524;12.052;2023-10-13T11:03:56;9.77;;;4.05;;
58366;SDS011;57745;42.524;12.052;2023-10-13T11:06:26;7.32;;;3.85;;
58366;SDS011;57745;42.524;12.052;2023-10-13T11:09:05;12.68;;;4.43;;
58366;SDS011;57745;42.524;12.052;2023-10-13T11:11:44;8.93;;;3.72;;
58366;SDS011;57745;42.524;12.052;2023-10-13T11:14:19;7.60;;;3.85;;
58366;SDS011;57745;42.524;12.052;2023-10-13T11:16:48;9.95;;;3.65;;
58366;SDS011;57745;42.524;12.052;2023-10-13T11:19:19;10.07;;;3.70;;
58366;SDS011;57745;42.524;12.052;2023-10-13T11:21:54;11.30;;;3.83;;
58366;SDS011;57745;42.524;12.052;2023-10-13T11:24:20;8.73;;;3.80;;
58366;SDS011;57745;42.524;12.052;2023-10-13T11:26:47;9.13;;;3.88;;
58366;SDS011;57745;42.524;12.052;2023-10-13T11:29:17;7.65;;;3.70;;
58366;SDS011;57745;42.524;12.052;2023-10-13T11:31:47;11.18;;;3.53;;
58366;SDS011;57745;42.524;12.052;2023-10-13T11:34:22;7.38;;;3.58;;
58366;SDS011;57745;42.524;12.052;2023-10-13T11:36:48;10.90;;;3.83;;
58366;SDS011;57745;42.524;12.052;2023-10-13T11:39:13;11.65;;;3.78;;
58366;SDS011;57745;42.524;12.052;2023-10-13T11:41:47;9.93;;;3.67;;
58366;SDS011;57745;42.524;12.052;2023-10-13T11:44:21;10.70;;;3.25;;
58366;SDS011;57745;42.524;12.052;2023-10-13T11:46:47;6.65;;;3.10;;
58366;SDS011;57745;42.524;12.052;2023-10-13T11:49:12;10.38;;;3.50;;
58366;SDS011;57745;42.524;12.052;2023-10-13T11:51:38;7.50;;;3.35;;
58366;SDS011;57745;42.524;12.052;2023-10-13T11:54:05;7.47;;;3.45;;
58366;SDS011;57745;42.524;12.052;2023-10-13T11:56:31;6.38;;;3.40;;
58366;SDS011;57745;42.524;12.052;2023-10-13T11:58:56;7.22;;;3.58;;
58366;SDS011;57745;42.524;12.052;2023-10-13T12:01:26;7.82;;;3.10;;
58366;SDS011;57745;42.524;12.052;2023-10-13T12:04:12;8.32;;;3.20;;
58366;SDS011;57745;42.524;12.052;2023-10-13T12:06:58;7.72;;;3.00;;
58366;SDS011;57745;42.524;12.052;2023-10-13T12:09:39;9.88;;;3.25;;
58366;SDS011;57745;42.524;12.052;2023-10-13T12:12:21;10.63;;;3.83;;
58366;SDS011;57745;42.524;12.052;2023-10-13T12:14:50;4.75;;;3.38;;
58366;SDS011;57745;42.524;12.052;2023-10-13T12:17:29;7.43;;;3.55;;
58366;SDS011;57745;42.524;12.052;2023-10-13T12:22:31;6.40;;;3.13;;
58366;SDS011;57745;42.524;12.052;2023-10-13T12:25:10;10.20;;;3.25;;
58366;SDS011;57745;42.524;12.052;2023-10-13T12:27:55;6.55;;;3.08;;
58366;SDS011;57745;42.524;12.052;2023-10-13T12:30:24;9.63;;;3.60;;
58366;SDS011;57745;42.524;12.052;2023-10-13T12:33:09;12.13;;;3.97;;
58366;SDS011;57745;42.524;12.052;2023-10-13T12:35:40;8.13;;;3.10;;
58366;SDS011;57745;42.524;12.052;2023-10-13T12:38:24;12.07;;;3.50;;
58366;SDS011;57745;42.524;12.052;2023-10-13T12:41:08;8.82;;;3.90;;
58366;SDS011;57745;42.524;12.052;2023-10-13T12:43:52;7.95;;;2.95;;
58366;SDS011;57745;42.524;12.052;2023-10-13T12:46:36;6.15;;;3.00;;
58366;SDS011;57745;42.524;12.052;2023-10-13T12:49:20;15.27;;;3.22;;
58366;SDS011;57745;42.524;12.052;2023-10-13T12:52:04;8.82;;;3.47;;
58366;SDS011;57745;42.524;12.052;2023-10-13T12:54:30;7.47;;;3.40;;
58366;SDS011;57745;42.524;12.052;2023-10-13T12:57:01;6.18;;;2.97;;
58366;SDS011;57745;42.524;12.052;2023-10-13T12:59:27;7.75;;;3.42;;
58366;SDS011;57745;42.524;12.052;2023-10-13T13:01:53;6.05;;;3.20;;
58366;SDS011;57745;42.524;12.052;2023-10-13T13:04:19;7.70;;;3.03;;
58366;SDS011;57745;42.524;12.052;2023-10-13T13:06:48;11.00;;;3.00;;
58366;SDS011;57745;42.524;12.052;2023-10-13T13:09:18;8.90;;;3.30;;
58366;SDS011;57745;42.524;12.052;2023-10-13T13:11:53;9.90;;;3.53;;
58366;SDS011;57745;42.524;12.052;2023-10-13T13:14:25;7.00;;;3.30;;
58366;SDS011;57745;42.524;12.052;2023-10-13T13:16:55;10.93;;;4.18;;
58366;SDS011;57745;42.524;12.052;2023-10-13T13:19:29;6.93;;;3.10;;
58366;SDS011;57745;42.524;12.052;2023-10-13T13:22:01;11.70;;;3.28;;
58366;SDS011;57745;42.524;12.052;2023-10-13T13:24:28;12.00;;;3.25;;
58366;SDS011;57745;42.524;12.052;2023-10-13T13:26:57;6.35;;;3.13;;
58366;SDS011;57745;42.524;12.052;2023-10-13T13:29:30;8.45;;;3.30;;
58366;SDS011;57745;42.524;12.052;2023-10-13T13:31:56;7.05;;;3.30;;
58366;SDS011;57745;42.524;12.052;2023-10-13T13:34:21;9.40;;;3.90;;
58366;SDS011;57745;42.524;12.052;2023-10-13T13:36:47;7.72;;;3.60;;
58366;SDS011;57745;42.524;12.052;2023-10-13T13:39:18;10.73;;;3.47;;
58366;SDS011;57745;42.524;12.052;2023-10-13T13:41:53;10.68;;;4.05;;
58366;SDS011;57745;42.524;12.052;2023-10-13T13:44:22;6.88;;;3.53;;
58366;SDS011;57745;42.524;12.052;2023-10-13T13:46:54;6.72;;;3.40;;
58366;SDS011;57745;42.524;12.052;2023-10-13T13:49:21;6.82;;;3.83;;
58366;SDS011;57745;42.524;12.052;2023-10-13T13:51:54;6.68;;;3.70;;
58366;SDS011;57745;42.524;12.052;2023-10-13T13:54:20;7.50;;;3.85;;
58366;SDS011;57745;42.524;12.052;2023-10-13T13:56:46;7.30;;;3.35;;
58366;SDS011;57745;42.524;12.052;2023-10-13T13:59:12;10.60;;;3.95;;
58366;SDS011;57745;42.524;12.052;2023-10-13T14:01:42;7.95;;;3.30;;
58366;SDS011;57745;42.524;12.052;2023-10-13T14:04:09;7.70;;;3.70;;
58366;SDS011;57745;42.524;12.052;2023-10-13T14:06:35;8.02;;;3.70;;
58366;SDS011;57745;42.524;12.052;2023-10-13T14:09:00;8.20;;;3.42;;
58366;SDS011;57745;42.524;12.052;2023-10-13T14:11:39;5.32;;;3.10;;
58366;SDS011;57745;42.524;12.052;2023-10-13T14:14:09;10.65;;;3.40;;
58366;SDS011;57745;42.524;12.052;2023-10-13T14:16:40;7.40;;;3.35;;
58366;SDS011;57745;42.524;12.052;2023-10-13T14:19:10;8.77;;;3.78;;
58366;SDS011;57745;42.524;12.052;2023-10-13T14:21:36;7.97;;;3.83;;
58366;SDS011;57745;42.524;12.052;2023-10-13T14:24:02;5.25;;;3.47;;
58366;SDS011;57745;42.524;12.052;2023-10-13T14:26:28;7.20;;;3.50;;
58366;SDS011;57745;42.524;12.052;2023-10-13T14:28:54;6.72;;;3.67;;
58366;SDS011;57745;42.524;12.052;2023-10-13T14:31:39;10.82;;;4.40;;
58366;SDS011;57745;42.524;12.052;2023-10-13T14:34:06;7.88;;;3.40;;
58366;SDS011;57745;42.524;12.052;2023-10-13T14:36:32;9.80;;;3.92;;
58366;SDS011;57745;42.524;12.052;2023-10-13T14:39:10;10.57;;;3.65;;
58366;SDS011;57745;42.524;12.052;2023-10-13T14:41:36;10.75;;;3.83;;
58366;SDS011;57745;42.524;12.052;2023-10-13T14:44:02;9.77;;;3.83;;
58366;SDS011;57745;42.524;12.052;2023-10-13T14:46:31;8.40;;;3.78;;
58366;SDS011;57745;42.524;12.052;2023-10-13T14:49:01;7.07;;;3.22;;
58366;SDS011;57745;42.524;12.052;2023-10-13T14:51:27;9.82;;;3.75;;
58366;SDS011;57745;42.524;12.052;2023-10-13T14:53:54;9.02;;;3.55;;
58366;SDS011;57745;42.524;12.052;2023-10-13T14:56:24;7.80;;;3.40;;
58366;SDS011;57745;42.524;12.052;2023-10-13T14:58:51;6.30;;;3.10;;
58366;SDS011;57745;42.524;12.052;2023-10-13T15:01:21;8.63;;;4.40;;
58366;SDS011;57745;42.524;12.052;2023-10-13T15:03:48;9.48;;;3.60;;
58366;SDS011;57745;42.524;12.052;2023-10-13T15:06:15;12.30;;;4.03;;
58366;SDS011;57745;42.524;12.052;2023-10-13T15:08:55;9.50;;;4.50;;
58366;SDS011;57745;42.524;12.052;2023-10-13T15:11:30;7.78;;;4.00;;
58366;SDS011;57745;42.524;12.052;2023-10-13T15:14:04;8.93;;;3.72;;
58366;SDS011;57745;42.524;12.052;2023-10-13T15:16:32;7.88;;;4.20;;
58366;SDS011;57745;42.524;12.052;2023-10-13T15:19:01;13.63;;;4.65;;
58366;SDS011;57745;42.524;12.052;2023-10-13T15:21:31;9.13;;;4.00;;
58366;SDS011;57745;42.524;12.052;2023-10-13T15:24:04;8.52;;;4.00;;
58366;SDS011;57745;42.524;12.052;2023-10-13T15:26:38;11.10;;;3.78;;
58366;SDS011;57745;42.524;12.052;2023-10-13T15:29:10;10.25;;;4.22;;
58366;SDS011;57745;42.524;12.052;2023-10-13T15:31:40;11.23;;;4.38;;
58366;SDS011;57745;42.524;12.052;2023-10-13T15:34:12;8.32;;;4.20;;